createdAt,value
2018-06-08T00:01:39.152Z,12.60
2018-06-08T00:06:35.891Z,12.70
2018-06-08T00:09:06.103Z,12.70
2018-06-08T00:11:34.362Z,12.80
2018-06-08T00:14:02.683Z,12.80
2018-06-08T00:16:30.958Z,12.80
2018-06-08T00:18:59.230Z,12.80
2018-06-08T00:21:27.526Z,12.70
2018-06-08T00:23:55.795Z,12.70
2018-06-08T00:26:24.070Z,12.60
2018-06-08T00:28:52.382Z,12.50
2018-06-08T00:31:21.481Z,12.50
2018-06-08T00:33:49.752Z,12.40
2018-06-08T00:36:18.039Z,12.30
2018-06-08T00:38:46.312Z,12.20
2018-06-08T00:41:14.602Z,12.20
2018-06-08T00:43:42.870Z,12.20
2018-06-08T00:46:11.153Z,12.20
2018-06-08T00:48:39.432Z,12.20
2018-06-08T00:51:07.717Z,12.20
2018-06-08T00:53:36.023Z,12.10
2018-06-08T00:56:04.337Z,12.10
2018-06-08T00:58:32.632Z,12.10
2018-06-08T01:01:00.931Z,12.00
2018-06-08T01:03:29.231Z,12.00
2018-06-08T01:05:57.770Z,12.10
2018-06-08T01:08:26.599Z,12.10
2018-06-08T01:10:55.427Z,12.10
2018-06-08T01:13:24.270Z,12.20
2018-06-08T01:15:52.540Z,12.10
2018-06-08T01:18:20.818Z,12.10
2018-06-08T01:20:49.096Z,12.10
2018-06-08T01:23:17.406Z,12.10
2018-06-08T01:25:45.666Z,12.10
2018-06-08T01:28:13.971Z,12.10
2018-06-08T01:30:42.247Z,12.10
2018-06-08T01:33:10.531Z,12.10
2018-06-08T01:35:38.802Z,12.10
2018-06-08T01:38:07.095Z,11.90
2018-06-08T01:40:35.417Z,11.80
2018-06-08T01:43:03.683Z,11.70
2018-06-08T01:45:31.949Z,11.60
2018-06-08T01:48:00.194Z,11.50
2018-06-08T01:50:28.476Z,11.50
2018-06-08T01:52:56.760Z,11.40
2018-06-08T01:55:25.026Z,11.40
2018-06-08T01:57:53.276Z,11.40
2018-06-08T02:00:21.558Z,11.40
2018-06-08T02:02:49.807Z,11.30
2018-06-08T02:05:18.075Z,11.30
2018-06-08T02:07:46.313Z,10.20
2018-06-08T02:10:14.577Z,11.30
2018-06-08T02:12:42.842Z,11.20
2018-06-08T02:15:11.126Z,11.20
2018-06-08T02:17:39.366Z,11.20
2018-06-08T02:20:07.615Z,11.10
2018-06-08T02:22:35.953Z,11.10
2018-06-08T02:25:04.201Z,11.10
2018-06-08T02:27:32.482Z,11.00
2018-06-08T02:30:00.748Z,11.00
2018-06-08T02:32:29.028Z,11.10
2018-06-08T02:37:25.318Z,11.20
2018-06-08T02:39:53.561Z,11.20
2018-06-08T02:42:21.829Z,11.30
2018-06-08T02:44:50.094Z,11.30
2018-06-08T02:47:18.367Z,11.40
2018-06-08T02:49:46.608Z,11.40
2018-06-08T02:52:14.875Z,11.40
2018-06-08T02:54:43.126Z,11.40
2018-06-08T02:57:11.418Z,11.30
2018-06-08T02:59:39.663Z,11.30
2018-06-08T03:02:07.926Z,11.30
2018-06-08T03:04:36.214Z,11.30
2018-06-08T03:07:04.703Z,11.30
2018-06-08T03:09:33.030Z,11.40
2018-06-08T03:12:01.369Z,11.40
2018-06-08T03:14:29.612Z,11.50
2018-06-08T03:16:57.901Z,11.50
2018-06-08T03:19:26.161Z,11.70
2018-06-08T03:24:22.496Z,11.90
2018-06-08T03:26:50.750Z,12.10
2018-06-08T03:29:19.037Z,12.30
2018-06-08T03:31:47.291Z,12.50
2018-06-08T03:34:15.606Z,12.70
2018-06-08T03:36:43.891Z,12.90
2018-06-08T03:39:12.272Z,13.10
2018-06-08T03:41:40.802Z,13.40
2018-06-08T03:44:09.061Z,13.60
2018-06-08T03:46:37.370Z,13.80
2018-06-08T03:49:05.629Z,14.00
2018-06-08T03:51:33.919Z,14.30
2018-06-08T03:54:02.235Z,14.50
2018-06-08T03:56:30.498Z,14.60
2018-06-08T03:58:58.751Z,14.80
2018-06-08T04:01:27.069Z,15.10
2018-06-08T04:03:55.333Z,15.20
2018-06-08T04:06:23.592Z,15.50
2018-06-08T04:08:51.865Z,15.70
2018-06-08T04:11:20.111Z,15.90
2018-06-08T04:13:48.447Z,16.10
2018-06-08T04:16:17.573Z,16.40
2018-06-08T04:18:45.863Z,16.70
2018-06-08T04:21:14.117Z,17.00
2018-06-08T04:23:42.385Z,17.30
2018-06-08T04:26:10.641Z,17.70
2018-06-08T04:28:38.993Z,18.00
2018-06-08T04:33:35.286Z,18.20
2018-06-08T04:36:03.542Z,18.30
2018-06-08T04:38:31.812Z,18.30
2018-06-08T04:41:00.099Z,18.50
2018-06-08T04:45:56.381Z,18.70
2018-06-08T04:48:24.676Z,18.80
2018-06-08T04:50:52.950Z,19.00
2018-06-08T04:53:21.221Z,19.20
2018-06-08T04:55:49.474Z,19.40
2018-06-08T04:58:17.755Z,19.60
2018-06-08T05:00:46.038Z,19.60
2018-06-08T05:03:14.331Z,19.70
2018-06-08T05:05:42.588Z,19.70
2018-06-08T05:08:10.885Z,19.80
2018-06-08T05:10:39.164Z,19.70
2018-06-08T05:13:07.781Z,19.60
2018-06-08T05:15:36.082Z,19.70
2018-06-08T05:18:04.336Z,19.70
2018-06-08T05:20:32.625Z,19.70
2018-06-08T05:23:00.881Z,19.80
2018-06-08T05:25:29.163Z,19.80
2018-06-08T05:27:57.424Z,19.80
2018-06-08T05:30:26.697Z,19.90
2018-06-08T05:32:54.966Z,20.00
2018-06-08T05:35:23.356Z,20.20
2018-06-08T05:37:51.618Z,20.30
2018-06-08T05:40:20.051Z,20.40
2018-06-08T05:45:16.366Z,20.60
2018-06-08T05:47:44.636Z,20.60
2018-06-08T05:50:12.886Z,20.70
2018-06-08T05:52:41.158Z,20.60
2018-06-08T05:55:09.422Z,20.70
2018-06-08T05:57:37.711Z,20.80
2018-06-08T06:00:06.021Z,21.00
2018-06-08T06:02:34.295Z,21.10
2018-06-08T06:05:02.582Z,18.80
2018-06-08T06:07:30.843Z,21.50
2018-06-08T06:09:59.196Z,21.60
2018-06-08T06:12:27.545Z,21.80
2018-06-08T06:14:55.823Z,22.00
2018-06-08T06:17:24.087Z,22.20
2018-06-08T06:19:52.358Z,22.60
2018-06-08T06:22:20.617Z,22.80
2018-06-08T06:24:49.007Z,23.20
2018-06-08T06:27:17.270Z,23.50
2018-06-08T06:29:45.549Z,23.80
2018-06-08T06:32:13.808Z,24.10
2018-06-08T06:34:42.097Z,24.30
2018-06-08T06:37:10.591Z,24.50
2018-06-08T06:39:44.262Z,24.60
2018-06-08T06:42:12.551Z,24.80
2018-06-08T06:44:40.827Z,25.00
2018-06-08T06:47:11.301Z,25.30
2018-06-08T06:49:39.577Z,25.50
2018-06-08T06:52:07.857Z,25.60
2018-06-08T06:54:36.121Z,25.80
2018-06-08T06:57:04.389Z,25.90
2018-06-08T06:59:32.694Z,26.10
2018-06-08T07:02:00.971Z,26.30
2018-06-08T07:04:29.281Z,26.50
2018-06-08T07:06:57.546Z,26.80
2018-06-08T07:09:25.777Z,27.00
2018-06-08T07:11:54.044Z,26.90
2018-06-08T07:14:22.301Z,27.10
2018-06-08T07:16:50.625Z,27.20
2018-06-08T07:19:19.009Z,27.40
2018-06-08T07:21:47.297Z,27.50
2018-06-08T07:24:15.591Z,27.60
2018-06-08T07:26:43.998Z,27.80
2018-06-08T07:29:12.234Z,27.80
2018-06-08T07:31:40.567Z,28.00
2018-06-08T07:34:08.861Z,28.30
2018-06-08T07:36:37.169Z,28.50
2018-06-08T07:39:07.654Z,28.60
2018-06-08T07:41:35.924Z,28.60
2018-06-08T07:44:04.189Z,28.90
2018-06-08T07:46:32.442Z,29.00
2018-06-08T07:49:00.749Z,29.10
2018-06-08T07:51:28.994Z,29.00
2018-06-08T07:53:57.471Z,29.10
2018-06-08T07:56:25.750Z,29.00
2018-06-08T07:58:54.471Z,29.00
2018-06-08T08:01:22.871Z,28.90
2018-06-08T08:03:51.163Z,28.90
2018-06-08T08:08:47.473Z,29.00
2018-06-08T08:11:16.852Z,29.10
2018-06-08T08:13:45.980Z,29.30
2018-06-08T08:16:15.118Z,29.50
2018-06-08T08:18:44.477Z,29.70
2018-06-08T08:21:13.870Z,29.80
2018-06-08T08:23:43.674Z,29.90
2018-06-08T08:26:13.036Z,29.90
2018-06-08T08:28:42.747Z,29.90
2018-06-08T08:31:12.816Z,29.90
2018-06-08T08:36:10.701Z,29.90
2018-06-08T08:38:39.696Z,29.90
2018-06-08T08:41:08.834Z,29.80
2018-06-08T08:43:37.968Z,30.00
2018-06-08T08:46:07.111Z,29.90
2018-06-08T08:48:36.247Z,29.80
2018-06-08T08:51:05.345Z,29.70
2018-06-08T08:53:34.441Z,29.90
2018-06-08T08:56:03.541Z,30.00
2018-06-08T08:58:32.725Z,30.20
2018-06-08T09:01:01.781Z,30.30
2018-06-08T09:03:30.865Z,30.10
2018-06-08T09:05:59.920Z,30.40
2018-06-08T09:08:28.900Z,30.90
2018-06-08T09:10:57.715Z,30.80
2018-06-08T09:13:27.126Z,30.60
2018-06-08T09:15:56.530Z,30.60
2018-06-08T09:18:25.394Z,30.20
2018-06-08T09:20:54.536Z,30.20
2018-06-08T09:23:23.334Z,30.20
2018-06-08T09:25:52.833Z,30.20
2018-06-08T09:28:21.450Z,30.20
2018-06-08T09:30:50.540Z,30.10
2018-06-08T09:33:19.086Z,30.10
2018-06-08T09:35:48.274Z,30.30
2018-06-08T09:38:16.910Z,30.40
2018-06-08T09:40:46.136Z,30.40
2018-06-08T09:43:15.443Z,30.80
2018-06-08T09:45:44.798Z,30.90
2018-06-08T09:48:14.203Z,30.90
2018-06-08T09:53:12.113Z,30.90
2018-06-08T09:55:41.404Z,30.90
2018-06-08T09:58:10.712Z,31.00
2018-06-08T10:00:42.294Z,31.10
2018-06-08T10:03:11.740Z,30.80
2018-06-08T10:05:41.034Z,30.70
2018-06-08T10:08:10.646Z,30.80
2018-06-08T10:10:40.163Z,31.00
2018-06-08T10:13:09.603Z,31.00
2018-06-08T10:15:38.944Z,30.70
2018-06-08T10:18:08.381Z,30.70
2018-06-08T10:20:37.867Z,30.80
2018-06-08T10:23:08.081Z,30.90
2018-06-08T10:25:37.572Z,30.70
2018-06-08T10:28:07.437Z,30.70
2018-06-08T10:30:36.753Z,30.40
2018-06-08T10:33:05.991Z,30.40
2018-06-08T10:35:35.144Z,30.70
2018-06-08T10:38:04.357Z,30.70
2018-06-08T10:40:33.713Z,31.10
2018-06-08T10:43:02.969Z,31.10
2018-06-08T10:45:32.291Z,31.00
2018-06-08T10:48:01.568Z,31.10
2018-06-08T10:50:30.898Z,31.20
2018-06-08T10:53:00.222Z,30.80
2018-06-08T10:55:29.374Z,30.60
2018-06-08T10:57:58.701Z,30.60
2018-06-08T11:00:27.997Z,30.60
2018-06-08T11:02:57.332Z,30.70
2018-06-08T11:05:26.558Z,30.80
2018-06-08T11:10:24.471Z,31.20
2018-06-08T11:12:54.890Z,30.70
2018-06-08T11:15:24.910Z,30.90
2018-06-08T11:17:55.311Z,31.30
2018-06-08T11:20:24.309Z,31.40
2018-06-08T11:22:54.159Z,31.40
2018-06-08T11:25:23.877Z,31.30
2018-06-08T11:27:53.031Z,31.20
2018-06-08T11:30:23.998Z,31.20
2018-06-08T11:32:53.302Z,31.30
2018-06-08T11:35:22.285Z,31.30
2018-06-08T11:37:50.555Z,31.40
2018-06-08T11:40:18.823Z,31.50
2018-06-08T11:42:47.108Z,31.80
2018-06-08T11:45:15.375Z,31.80
2018-06-08T11:47:43.657Z,31.70
2018-06-08T11:50:11.906Z,31.60
2018-06-08T11:52:40.178Z,31.40
2018-06-08T11:55:08.438Z,31.50
2018-06-08T11:57:36.712Z,31.60
2018-06-08T12:00:04.983Z,31.70
2018-06-08T12:02:34.047Z,31.70
2018-06-08T12:05:02.622Z,31.50
2018-06-08T12:07:30.887Z,31.60
2018-06-08T12:09:59.142Z,31.70
2018-06-08T12:12:27.431Z,31.80
2018-06-08T12:14:55.698Z,31.80
2018-06-08T12:17:23.995Z,31.80
2018-06-08T12:19:52.279Z,31.80
2018-06-08T12:22:20.602Z,31.90
2018-06-08T12:24:48.850Z,32.00
2018-06-08T12:27:17.136Z,32.30
2018-06-08T12:29:45.430Z,32.40
2018-06-08T12:32:13.721Z,32.30
2018-06-08T12:34:41.986Z,32.30
2018-06-08T12:37:10.246Z,32.30
2018-06-08T12:42:06.587Z,32.30
2018-06-08T12:44:34.868Z,32.30
2018-06-08T12:47:03.125Z,32.40
2018-06-08T12:49:31.398Z,32.40
2018-06-08T12:51:59.661Z,32.60
2018-06-08T12:54:27.939Z,32.80
2018-06-08T12:56:56.206Z,32.70
2018-06-08T12:59:24.479Z,32.60
2018-06-08T13:01:52.755Z,32.40
2018-06-08T13:04:21.056Z,32.30
2018-06-08T13:06:49.323Z,32.40
2018-06-08T13:09:17.576Z,32.60
2018-06-08T13:11:45.841Z,32.60
2018-06-08T13:14:14.089Z,32.30
2018-06-08T13:16:42.374Z,32.40
2018-06-08T13:19:10.630Z,32.40
2018-06-08T13:21:38.901Z,32.40
2018-06-08T13:24:07.181Z,32.30
2018-06-08T13:26:35.492Z,32.40
2018-06-08T13:29:03.750Z,32.40
2018-06-08T13:31:32.035Z,32.50
2018-06-08T13:34:00.303Z,32.40
2018-06-08T13:36:28.558Z,32.40
2018-06-08T13:38:56.950Z,32.30
2018-06-08T13:41:25.706Z,32.20
2018-06-08T13:43:53.969Z,32.30
2018-06-08T13:46:33.622Z,32.50
2018-06-08T13:49:02.335Z,32.60
2018-06-08T13:51:30.799Z,32.60
2018-06-08T13:53:59.041Z,32.70
2018-06-08T13:56:27.354Z,32.70
2018-06-08T13:58:55.632Z,32.50
2018-06-08T14:01:23.946Z,32.30
2018-06-08T14:03:52.265Z,32.00
2018-06-08T14:06:20.518Z,32.00
2018-06-08T14:08:48.790Z,32.10
2018-06-08T14:11:17.043Z,32.30
2018-06-08T14:13:45.304Z,32.30
2018-06-08T14:16:13.559Z,32.30
2018-06-08T14:18:41.873Z,32.40
2018-06-08T14:23:38.276Z,32.60
2018-06-08T14:26:06.538Z,32.50
2018-06-08T14:28:34.918Z,32.60
2018-06-08T14:31:03.254Z,32.70
2018-06-08T14:33:31.536Z,32.70
2018-06-08T14:35:59.811Z,32.70
2018-06-08T14:38:28.094Z,32.80
2018-06-08T14:43:24.384Z,32.90
2018-06-08T14:45:52.731Z,33.00
2018-06-08T14:48:20.999Z,32.90
2018-06-08T14:50:49.275Z,32.90
2018-06-08T14:53:17.543Z,32.90
2018-06-08T14:55:45.930Z,32.80
2018-06-08T14:58:14.190Z,32.70
2018-06-08T15:00:42.497Z,32.70
2018-06-08T15:03:10.761Z,32.80
2018-06-08T15:05:39.085Z,32.80
2018-06-08T15:08:07.340Z,32.90
2018-06-08T15:10:35.607Z,32.90
2018-06-08T15:13:04.340Z,32.90
2018-06-08T15:15:32.682Z,32.80
2018-06-08T15:18:00.933Z,32.70
2018-06-08T15:20:29.278Z,32.50
2018-06-08T15:22:57.656Z,32.30
2018-06-08T15:25:26.017Z,32.30
2018-06-08T15:30:22.666Z,32.50
2018-06-08T15:32:53.787Z,32.80
2018-06-08T15:35:22.146Z,32.70
2018-06-08T15:37:50.556Z,32.70
2018-06-08T15:40:18.901Z,32.50
2018-06-08T15:42:47.374Z,32.50
2018-06-08T15:45:15.816Z,32.60
2018-06-08T15:47:44.641Z,32.40
2018-06-08T15:50:13.414Z,32.30
2018-06-08T15:52:41.979Z,32.10
2018-06-08T15:55:10.343Z,32.00
2018-06-08T15:57:38.882Z,32.10
2018-06-08T16:00:07.402Z,32.00
2018-06-08T16:02:35.760Z,32.00
2018-06-08T16:05:04.167Z,32.00
2018-06-08T16:07:32.646Z,31.80
2018-06-08T16:10:00.947Z,31.80
2018-06-08T16:12:29.330Z,31.80
2018-06-08T16:14:57.915Z,31.70
2018-06-08T16:17:26.406Z,31.70
2018-06-08T16:19:54.746Z,31.50
2018-06-08T16:22:23.137Z,31.40
2018-06-08T16:24:51.621Z,31.40
2018-06-08T16:27:20.052Z,31.40
2018-06-08T16:29:48.383Z,31.40
2018-06-08T16:32:16.630Z,31.50
2018-06-08T16:34:45.018Z,31.50
2018-06-08T16:37:13.342Z,31.50
2018-06-08T16:39:42.283Z,31.30
2018-06-08T16:42:10.991Z,31.30
2018-06-08T16:44:39.497Z,31.30
2018-06-08T16:47:07.795Z,31.30
2018-06-08T16:49:36.087Z,31.20
2018-06-08T16:52:04.466Z,31.00
2018-06-08T16:54:32.850Z,30.80
2018-06-08T16:57:01.116Z,30.50
2018-06-08T16:59:29.393Z,30.30
2018-06-08T17:01:57.772Z,30.10
2018-06-08T17:04:26.077Z,29.80
2018-06-08T17:06:54.414Z,29.70
2018-06-08T17:09:22.734Z,29.50
2018-06-08T17:11:51.090Z,29.30
2018-06-08T17:14:19.378Z,29.10
2018-06-08T17:16:47.814Z,28.90
2018-06-08T17:19:16.170Z,28.60
2018-06-08T17:21:44.522Z,28.30
2018-06-08T17:24:12.818Z,28.10
2018-06-08T17:26:41.321Z,27.80
2018-06-08T17:29:09.722Z,27.70
2018-06-08T17:31:38.704Z,27.60
2018-06-08T17:34:07.180Z,27.40
2018-06-08T17:36:35.866Z,27.30
2018-06-08T17:39:06.106Z,27.20
2018-06-08T17:41:34.767Z,27.20
2018-06-08T17:44:03.323Z,27.10
2018-06-08T17:46:31.629Z,27.00
2018-06-08T17:48:59.927Z,27.00
2018-06-08T17:51:29.005Z,27.00
2018-06-08T17:53:57.330Z,27.00
2018-06-08T17:56:25.622Z,27.00
2018-06-08T17:58:53.908Z,27.00
2018-06-08T18:01:22.257Z,27.00
2018-06-08T18:03:50.552Z,26.90
2018-06-08T18:06:18.822Z,26.80
2018-06-08T18:08:47.159Z,26.60
2018-06-08T18:11:15.425Z,26.50
2018-06-08T18:13:43.718Z,26.40
2018-06-08T18:16:12.011Z,26.30
2018-06-08T18:18:40.366Z,26.20
2018-06-08T18:21:08.668Z,26.10
2018-06-08T18:23:36.975Z,26.00
2018-06-08T18:26:05.358Z,25.90
2018-06-08T18:28:33.674Z,25.80
2018-06-08T18:31:01.949Z,25.70
2018-06-08T18:33:30.271Z,25.40
2018-06-08T18:35:59.413Z,25.20
2018-06-08T18:38:27.867Z,25.00
2018-06-08T18:40:56.160Z,24.80
2018-06-08T18:43:24.477Z,24.70
2018-06-08T18:45:52.769Z,24.50
2018-06-08T18:48:21.090Z,24.40
2018-06-08T18:53:17.394Z,24.10
2018-06-08T18:55:45.674Z,24.00
2018-06-08T18:58:13.997Z,23.80
2018-06-08T19:03:10.364Z,23.60
2018-06-08T19:05:38.918Z,23.40
2018-06-08T19:08:07.182Z,23.40
2018-06-08T19:10:35.434Z,23.20
2018-06-08T19:13:03.834Z,23.00
2018-06-08T19:15:32.183Z,22.90
2018-06-08T19:18:00.586Z,22.80
2018-06-08T19:20:28.879Z,22.70
2018-06-08T19:22:57.130Z,22.50
2018-06-08T19:25:25.406Z,22.40
2018-06-08T19:27:53.653Z,22.30
2018-06-08T19:30:21.974Z,22.10
2018-06-08T19:32:50.239Z,22.00
2018-06-08T19:35:18.501Z,21.90
2018-06-08T19:37:46.749Z,21.70
2018-06-08T19:40:15.025Z,21.70
2018-06-08T19:45:11.313Z,21.40
2018-06-08T19:50:07.623Z,21.20
2018-06-08T19:52:35.894Z,21.10
2018-06-08T19:55:04.875Z,21.10
2018-06-08T19:57:33.170Z,21.00
2018-06-08T20:00:01.494Z,20.90
2018-06-08T20:02:29.789Z,20.80
2018-06-08T20:04:58.052Z,20.80
2018-06-08T20:07:26.420Z,20.60
2018-06-08T20:10:05.596Z,20.50
2018-06-08T20:12:33.997Z,20.40
2018-06-08T20:15:12.657Z,20.40
2018-06-08T20:17:49.995Z,20.30
2018-06-08T20:20:32.027Z,20.20
2018-06-08T20:23:12.356Z,20.20
2018-06-08T20:25:47.590Z,20.20
2018-06-08T20:28:15.860Z,20.10
2018-06-08T20:30:48.662Z,20.10
2018-06-08T20:33:17.466Z,20.00
2018-06-08T20:35:45.761Z,19.90
2018-06-08T20:38:14.089Z,19.90
2018-06-08T20:40:48.843Z,19.90
2018-06-08T20:43:25.484Z,19.80
2018-06-08T20:45:56.095Z,19.70
2018-06-08T20:48:24.374Z,19.70
2018-06-08T20:50:53.052Z,19.60
2018-06-08T20:53:21.347Z,19.50
2018-06-08T20:55:49.622Z,19.50
2018-06-08T20:58:25.463Z,19.40
2018-06-08T21:03:22.210Z,19.30
2018-06-08T21:05:50.482Z,19.10
2018-06-08T21:08:18.803Z,19.00
2018-06-08T21:10:47.106Z,18.90
2018-06-08T21:13:26.007Z,18.80
2018-06-08T21:15:54.326Z,18.70
2018-06-08T21:18:22.663Z,18.60
2018-06-08T21:20:50.946Z,18.50
2018-06-08T21:23:19.302Z,18.40
2018-06-08T21:25:47.608Z,18.30
2018-06-08T21:28:16.257Z,18.30
2018-06-08T21:30:45.131Z,18.30
2018-06-08T21:33:13.418Z,18.30
2018-06-08T21:35:42.561Z,18.30
2018-06-08T21:38:11.157Z,18.30
2018-06-08T21:40:41.189Z,18.20
2018-06-08T21:43:09.537Z,18.10
2018-06-08T21:45:37.828Z,18.10
2018-06-08T21:48:06.143Z,18.00
2018-06-08T21:50:34.493Z,18.00
2018-06-08T21:53:02.778Z,18.00
2018-06-08T21:55:31.140Z,17.90
2018-06-08T21:57:59.391Z,17.90
2018-06-08T22:00:27.710Z,17.80
2018-06-08T22:02:56.039Z,17.70
2018-06-08T22:05:24.289Z,17.70
2018-06-08T22:07:52.556Z,17.70
2018-06-08T22:10:22.562Z,17.60
2018-06-08T22:12:50.849Z,17.60
2018-06-08T22:15:19.174Z,17.60
2018-06-08T22:17:47.514Z,17.60
2018-06-08T22:20:16.771Z,17.60
2018-06-08T22:22:45.111Z,17.60
2018-06-08T22:25:13.361Z,17.60
2018-06-08T22:27:41.637Z,17.60
2018-06-08T22:32:37.934Z,17.50
2018-06-08T22:35:06.218Z,17.40
2018-06-08T22:37:34.522Z,17.30
2018-06-08T22:40:02.773Z,17.30
2018-06-08T22:42:31.054Z,17.30
2018-06-08T22:44:59.318Z,17.20
2018-06-08T22:47:27.585Z,17.20
2018-06-08T22:49:56.580Z,17.10
2018-06-08T22:52:24.902Z,17.10
2018-06-08T22:54:53.154Z,17.00
2018-06-08T22:57:21.477Z,17.00
2018-06-08T22:59:50.821Z,17.00
2018-06-08T23:02:19.108Z,16.90
2018-06-08T23:04:47.373Z,16.90
2018-06-08T23:09:43.670Z,16.80
2018-06-08T23:12:12.078Z,16.80
2018-06-08T23:14:40.337Z,16.80
2018-06-08T23:17:08.598Z,16.70
2018-06-08T23:19:36.946Z,16.70
2018-06-08T23:22:05.236Z,16.70
2018-06-08T23:24:33.567Z,16.60
2018-06-08T23:27:01.798Z,16.60
2018-06-08T23:29:30.078Z,16.50
2018-06-08T23:31:58.326Z,16.40
2018-06-08T23:34:26.586Z,16.40
2018-06-08T23:36:54.898Z,16.30
2018-06-08T23:39:23.193Z,16.30
2018-06-08T23:41:51.451Z,16.20
2018-06-08T23:44:19.783Z,16.10
2018-06-08T23:46:48.034Z,16.10
2018-06-08T23:49:18.592Z,16.00
2018-06-08T23:51:46.859Z,16.00
2018-06-08T23:54:15.141Z,15.90
2018-06-08T23:56:43.398Z,15.90
2018-06-08T23:59:11.682Z,15.80
